Time;durP1;ratioP1;P1;durP2;ratioP2;P2;SDS_P1;SDS_P2;PMS_P1;PMS_P2;Temp;Humidity;BMP_temperature;BMP_pressure;BME280_temperature;BME280_humidity;BME280_pressure;Samples;Min_cycle;Max_cycle;Signal;HPM_P1;HPM_P2
2022/05/18 00:01:17;;;;;;;;;6.25;5.00;;;;;;;;5057394;28;45267;-73
2022/05/18 00:03:43;;;;;;;;;4.75;4.75;;;;;;;;5056103;28;46008;-73
2022/05/18 00:06:10;;;;;;;;;7.75;7.00;;;;;;;;5058211;28;45430;-73
2022/05/18 00:08:38;;;;;;;;;6.00;4.75;;;;;;;;5055560;28;45445;-73
2022/05/18 00:11:14;;;;;;;;;5.00;5.00;;;;;;;;5052974;28;45602;-73
2022/05/18 00:13:39;;;;;;;;;5.25;4.00;;;;;;;;5045375;28;45690;-73
2022/05/18 00:16:05;;;;;;;;;5.25;5.00;;;;;;;;5061965;28;45458;-73
2022/05/18 00:18:31;;;;;;;;;5.25;5.25;;;;;;;;5056463;28;45486;-73
2022/05/18 00:20:56;;;;;;;;;6.25;4.25;;;;;;;;5061670;28;45328;-73
2022/05/18 00:23:21;;;;;;;;;5.75;5.75;;;;;;;;5058547;28;45336;-74
2022/05/18 00:25:47;;;;;;;;;6.50;6.00;;;;;;;;5057018;28;45469;-73
2022/05/18 00:28:12;;;;;;;;;6.25;6.25;;;;;;;;5055380;28;45402;-73
2022/05/18 00:30:38;;;;;;;;;7.25;5.25;;;;;;;;5059176;28;45421;-72
2022/05/18 00:33:05;;;;;;;;;8.00;7.00;;;;;;;;5058662;28;45473;-71
2022/05/18 00:35:30;;;;;;;;;6.33;6.00;;;;;;;;5058088;28;45295;-73
2022/05/18 00:37:56;;;;;;;;;7.33;7.33;;;;;;;;5059756;28;45335;-73
2022/05/18 00:40:21;;;;;;;;;7.67;6.00;;;;;;;;5057383;28;45300;-71
2022/05/18 00:42:46;;;;;;;;;7.00;7.00;;;;;;;;5059938;28;45468;-73
2022/05/18 00:45:12;;;;;;;;;4.67;4.67;;;;;;;;5057490;28;45212;-73
2022/05/18 00:47:37;;;;;;;;;7.00;6.00;;;;;;;;5061618;28;45163;-73
2022/05/18 00:50:09;;;;;;;;;5.00;5.00;;;;;;;;5052527;28;47295;-73
2022/05/18 00:52:39;;;;;;;;;7.00;6.33;;;;;;;;5060465;28;46273;-74
2022/05/18 00:55:08;;;;;;;;;7.00;7.00;;;;;;;;5056905;28;45422;-73
2022/05/18 00:57:35;;;;;;;;;7.00;7.00;;;;;;;;5056284;28;45614;-73
2022/05/18 01:00:04;;;;;;;;;7.33;7.33;;;;;;;;5057831;28;45308;-73
2022/05/18 01:02:30;;;;;;;;;5.33;5.00;;;;;;;;5060380;28;46690;-73
2022/05/18 01:04:56;;;;;;;;;5.67;5.67;;;;;;;;5048506;28;45259;-73
2022/05/18 01:07:26;;;;;;;;;7.00;6.33;;;;;;;;5052888;28;45497;-73
2022/05/18 01:09:52;;;;;;;;;8.00;8.00;;;;;;;;5047321;28;46267;-74
2022/05/18 01:12:18;;;;;;;;;7.00;7.00;;;;;;;;5051066;28;46166;-73
2022/05/18 01:14:52;;;;;;;;;8.33;8.00;;;;;;;;5046694;28;45361;-73
2022/05/18 01:17:20;;;;;;;;;6.33;6.33;;;;;;;;5059890;28;45299;-73
2022/05/18 01:19:47;;;;;;;;;7.67;6.67;;;;;;;;5055308;28;45480;-73
2022/05/18 01:22:25;;;;;;;;;7.67;7.67;;;;;;;;5060827;28;45368;-73
2022/05/18 01:24:56;;;;;;;;;7.00;7.00;;;;;;;;5054647;28;45253;-73
2022/05/18 01:27:21;;;;;;;;;7.00;4.67;;;;;;;;5061142;28;45588;-73
2022/05/18 01:29:46;;;;;;;;;7.00;7.00;;;;;;;;5053997;28;45249;-71
2022/05/18 01:32:13;;;;;;;;;5.33;5.33;;;;;;;;5061330;28;46146;-73
2022/05/18 01:34:42;;;;;;;;;6.67;6.33;;;;;;;;5051618;28;45331;-73
2022/05/18 01:37:07;;;;;;;;;9.33;6.33;;;;;;;;5060698;28;45308;-73
2022/05/18 01:39:36;;;;;;;;;8.00;7.00;;;;;;;;5053935;28;47085;-73
2022/05/18 01:42:08;;;;;;;;;5.00;5.00;;;;;;;;5054975;28;46397;-73
2022/05/18 01:44:35;;;;;;;;;7.33;6.00;;;;;;;;5054464;28;45453;-73
2022/05/18 01:47:00;;;;;;;;;9.00;7.00;;;;;;;;5056404;28;45367;-73
2022/05/18 01:49:26;;;;;;;;;7.33;7.33;;;;;;;;5050770;28;46346;-73
2022/05/18 01:51:53;;;;;;;;;8.33;7.33;;;;;;;;5055334;28;46132;-73
2022/05/18 01:54:19;;;;;;;;;7.33;6.33;;;;;;;;5049309;28;46137;-73
2022/05/18 01:56:44;;;;;;;;;8.00;7.00;;;;;;;;5056308;28;45979;-73
2022/05/18 01:59:09;;;;;;;;;7.00;7.00;;;;;;;;5050904;28;45480;-73
2022/05/18 02:01:35;;;;;;;;;6.00;6.00;;;;;;;;5059523;28;45859;-73
2022/05/18 02:04:00;;;;;;;;;7.00;7.00;;;;;;;;5053540;28;45425;-74
2022/05/18 02:06:25;;;;;;;;;7.67;7.67;;;;;;;;5054706;28;45375;-73
2022/05/18 02:08:51;;;;;;;;;10.00;7.67;;;;;;;;5047739;28;45952;-73
2022/05/18 02:11:18;;;;;;;;;5.00;3.67;;;;;;;;5054782;28;46050;-73
2022/05/18 02:13:43;;;;;;;;;9.00;6.67;;;;;;;;5052704;28;45469;-73
2022/05/18 02:16:09;;;;;;;;;5.33;5.33;;;;;;;;5059791;28;45266;-73
2022/05/18 02:18:34;;;;;;;;;9.00;8.00;;;;;;;;5055957;28;45411;-73
2022/05/18 02:21:03;;;;;;;;;7.00;6.00;;;;;;;;5058179;28;46590;-73
2022/05/18 02:23:28;;;;;;;;;6.00;6.00;;;;;;;;5054682;28;45377;-73
2022/05/18 02:25:54;;;;;;;;;8.00;7.00;;;;;;;;5056121;28;45445;-73
2022/05/18 02:28:19;;;;;;;;;6.33;6.00;;;;;;;;5055427;28;45291;-73
2022/05/18 02:30:44;;;;;;;;;7.67;4.67;;;;;;;;5057734;28;45245;-72
2022/05/18 02:33:09;;;;;;;;;5.33;5.33;;;;;;;;5056194;28;45355;-73
2022/05/18 02:35:36;;;;;;;;;6.00;6.00;;;;;;;;5052183;28;45415;-73
2022/05/18 02:38:02;;;;;;;;;4.00;4.00;;;;;;;;5054135;28;45996;-73
2022/05/18 02:40:27;;;;;;;;;4.33;3.67;;;;;;;;5057771;28;47598;-73
2022/05/18 02:42:53;;;;;;;;;3.67;3.33;;;;;;;;5055877;28;46107;-73
2022/05/18 02:45:18;;;;;;;;;4.00;3.00;;;;;;;;5056623;28;45363;-73
2022/05/18 02:47:43;;;;;;;;;2.00;2.00;;;;;;;;5057702;28;45532;-72
2022/05/18 02:50:09;;;;;;;;;4.00;4.00;;;;;;;;5052363;28;48102;-73
2022/05/18 02:52:35;;;;;;;;;4.00;4.00;;;;;;;;5058763;28;45162;-73
2022/05/18 02:57:45;;;;;;;;;5.00;5.00;;;;;;;;5057002;28;45225;-73
2022/05/18 03:00:10;;;;;;;;;6.67;5.00;;;;;;;;5057565;28;47672;-73
2022/05/18 03:02:35;;;;;;;;;6.00;5.00;;;;;;;;5056608;28;45460;-73
2022/05/18 03:05:01;;;;;;;;;4.33;4.00;;;;;;;;5050756;28;45214;-73
2022/05/18 03:07:26;;;;;;;;;7.67;5.00;;;;;;;;5060754;28;45505;-73
2022/05/18 03:09:51;;;;;;;;;6.00;5.00;;;;;;;;5049876;28;46287;-72
2022/05/18 03:12:16;;;;;;;;;7.33;5.00;;;;;;;;5059127;28;45236;-73
2022/05/18 03:14:42;;;;;;;;;4.00;4.00;;;;;;;;5053304;28;45398;-73
2022/05/18 03:17:07;;;;;;;;;4.67;4.00;;;;;;;;5059309;28;45480;-73
2022/05/18 03:19:32;;;;;;;;;2.67;2.67;;;;;;;;5050941;28;47088;-73
2022/05/18 03:24:41;;;;;;;;;2.67;2.00;;;;;;;;5052502;28;45583;-73
2022/05/18 03:27:06;;;;;;;;;3.00;3.00;;;;;;;;5058835;28;45203;-74
2022/05/18 03:29:32;;;;;;;;;1.67;1.67;;;;;;;;5052102;28;45354;-73
2022/05/18 03:31:57;;;;;;;;;3.00;3.00;;;;;;;;5058924;28;45325;-73
2022/05/18 03:34:23;;;;;;;;;2.00;2.00;;;;;;;;5050447;28;45366;-73
2022/05/18 03:36:48;;;;;;;;;3.00;3.00;;;;;;;;5052397;28;45457;-73
2022/05/18 03:39:15;;;;;;;;;1.67;1.67;;;;;;;;5052019;28;46493;-73
2022/05/18 03:41:40;;;;;;;;;2.00;2.00;;;;;;;;5058606;28;45342;-73
2022/05/18 03:44:06;;;;;;;;;2.00;2.00;;;;;;;;5052742;28;45253;-73
2022/05/18 03:46:31;;;;;;;;;5.67;4.00;;;;;;;;5060637;28;47664;-73
2022/05/18 03:48:58;;;;;;;;;4.33;4.33;;;;;;;;5057374;28;45354;-73
2022/05/18 03:51:23;;;;;;;;;6.67;3.00;;;;;;;;5060742;28;45228;-73
2022/05/18 03:53:49;;;;;;;;;4.00;2.67;;;;;;;;5060267;28;45434;-73
2022/05/18 03:56:15;;;;;;;;;3.00;3.00;;;;;;;;5060717;28;46404;-73
2022/05/18 03:58:41;;;;;;;;;5.00;3.00;;;;;;;;5059431;28;45456;-73
2022/05/18 04:01:10;;;;;;;;;2.67;2.67;;;;;;;;5061577;28;45237;-73
2022/05/18 04:03:37;;;;;;;;;2.33;2.33;;;;;;;;5059530;28;45402;-73
2022/05/18 04:06:02;;;;;;;;;3.00;3.00;;;;;;;;5053881;28;45316;-73
2022/05/18 04:08:27;;;;;;;;;6.33;3.33;;;;;;;;5059736;28;45208;-73
2022/05/18 04:10:56;;;;;;;;;3.33;1.33;;;;;;;;5054693;28;45154;-73
2022/05/18 04:13:24;;;;;;;;;5.33;4.00;;;;;;;;5057263;28;45697;-73
2022/05/18 04:15:50;;;;;;;;;4.33;2.67;;;;;;;;5060684;28;45359;-73
2022/05/18 04:18:16;;;;;;;;;2.00;2.00;;;;;;;;5057856;28;45356;-73
2022/05/18 04:20:41;;;;;;;;;2.33;2.33;;;;;;;;5060463;28;45431;-74
2022/05/18 04:23:07;;;;;;;;;2.33;2.33;;;;;;;;5058966;28;45463;-74
2022/05/18 04:25:32;;;;;;;;;3.00;3.00;;;;;;;;5057717;28;45455;-73
2022/05/18 04:27:57;;;;;;;;;3.00;1.67;;;;;;;;5058402;28;48206;-73
2022/05/18 04:30:24;;;;;;;;;2.00;2.00;;;;;;;;5057147;28;45225;-73
2022/05/18 04:32:50;;;;;;;;;2.33;2.00;;;;;;;;5059544;28;45538;-73
2022/05/18 04:35:16;;;;;;;;;1.00;1.00;;;;;;;;5061542;28;47679;-73
2022/05/18 04:37:42;;;;;;;;;1.00;1.00;;;;;;;;5060451;28;47266;-73
2022/05/18 04:40:08;;;;;;;;;3.00;2.67;;;;;;;;5053526;28;45277;-73
2022/05/18 04:42:34;;;;;;;;;2.33;2.00;;;;;;;;5059427;28;45367;-73
2022/05/18 04:44:59;;;;;;;;;4.33;1.67;;;;;;;;5055480;28;45407;-74
2022/05/18 04:47:25;;;;;;;;;2.00;2.00;;;;;;;;5058531;28;47303;-73
2022/05/18 04:49:51;;;;;;;;;2.33;2.00;;;;;;;;5051940;28;45759;-73
2022/05/18 04:52:20;;;;;;;;;3.67;0.67;;;;;;;;5058937;28;45292;-74
2022/05/18 04:54:45;;;;;;;;;2.00;2.00;;;;;;;;5056341;28;45407;-73
2022/05/18 04:57:10;;;;;;;;;2.33;1.00;;;;;;;;5066462;28;47098;-75
2022/05/18 04:59:36;;;;;;;;;0.67;0.67;;;;;;;;5058405;28;45695;-73
2022/05/18 05:02:02;;;;;;;;;4.00;3.00;;;;;;;;5060282;28;45388;-74
2022/05/18 05:04:27;;;;;;;;;3.00;1.67;;;;;;;;5051243;28;45533;-74
2022/05/18 05:06:52;;;;;;;;;2.33;1.67;;;;;;;;5059279;28;45350;-74
2022/05/18 05:09:18;;;;;;;;;2.67;0.67;;;;;;;;5051130;28;45432;-74
2022/05/18 05:11:43;;;;;;;;;3.33;0.67;;;;;;;;5058970;28;45319;-74
2022/05/18 05:14:08;;;;;;;;;2.00;2.00;;;;;;;;5052856;28;46235;-74
2022/05/18 05:16:34;;;;;;;;;2.00;2.00;;;;;;;;5058890;28;46094;-74
2022/05/18 05:18:59;;;;;;;;;1.33;1.33;;;;;;;;5055854;28;45355;-74
2022/05/18 05:21:24;;;;;;;;;2.67;2.67;;;;;;;;5064318;28;45446;-74
2022/05/18 05:23:49;;;;;;;;;1.00;1.00;;;;;;;;5056336;28;45356;-74
2022/05/18 05:26:15;;;;;;;;;2.00;2.00;;;;;;;;5059088;28;47502;-74
2022/05/18 05:28:41;;;;;;;;;5.33;1.00;;;;;;;;5054162;28;45296;-74
2022/05/18 05:31:07;;;;;;;;;1.67;1.67;;;;;;;;5060464;28;45331;-74
2022/05/18 05:33:33;;;;;;;;;1.67;1.67;;;;;;;;5054256;28;45239;-74
2022/05/18 05:35:58;;;;;;;;;2.00;1.00;;;;;;;;5056352;28;47887;-75
2022/05/18 05:38:24;;;;;;;;;2.67;2.00;;;;;;;;5055472;28;45509;-75
2022/05/18 05:40:49;;;;;;;;;2.33;1.00;;;;;;;;5056079;28;45194;-74
2022/05/18 05:43:15;;;;;;;;;2.00;2.00;;;;;;;;5058087;28;46069;-75
2022/05/18 05:45:40;;;;;;;;;1.00;1.00;;;;;;;;5059131;28;48019;-75
2022/05/18 05:48:06;;;;;;;;;2.67;2.00;;;;;;;;5057006;28;45277;-75
2022/05/18 05:50:31;;;;;;;;;1.67;1.67;;;;;;;;5059758;28;45226;-75
2022/05/18 05:52:57;;;;;;;;;2.33;1.67;;;;;;;;5057202;28;45507;-75
2022/05/18 05:55:23;;;;;;;;;2.67;2.67;;;;;;;;5059179;28;45434;-74
2022/05/18 05:57:48;;;;;;;;;1.67;1.00;;;;;;;;5057713;28;45664;-74
2022/05/18 06:00:13;;;;;;;;;0.00;0.00;;;;;;;;5058809;28;45342;-75
2022/05/18 06:02:39;;;;;;;;;2.00;2.00;;;;;;;;5059705;28;45267;-74
2022/05/18 06:05:04;;;;;;;;;2.00;2.00;;;;;;;;5052459;28;46197;-74
2022/05/18 06:07:30;;;;;;;;;1.00;1.00;;;;;;;;5061258;28;45265;-74
2022/05/18 06:09:56;;;;;;;;;5.00;2.00;;;;;;;;5050253;28;45524;-73
2022/05/18 06:12:22;;;;;;;;;2.00;2.00;;;;;;;;5059922;28;45313;-73
2022/05/18 06:14:48;;;;;;;;;2.33;1.00;;;;;;;;5052348;28;47283;-71
2022/05/18 06:17:13;;;;;;;;;4.00;1.67;;;;;;;;5060146;28;45305;-71
2022/05/18 06:19:40;;;;;;;;;2.00;2.00;;;;;;;;5051199;28;45363;-71
2022/05/18 06:22:06;;;;;;;;;0.67;0.67;;;;;;;;5058724;28;46328;-71
2022/05/18 06:24:31;;;;;;;;;2.00;2.00;;;;;;;;5052959;28;46096;-72
2022/05/18 06:26:59;;;;;;;;;2.00;2.00;;;;;;;;5059666;28;45244;-70
2022/05/18 06:29:24;;;;;;;;;0.67;0.67;;;;;;;;5053274;28;45323;-70
2022/05/18 06:31:50;;;;;;;;;0.67;0.67;;;;;;;;5059252;28;45326;-68
2022/05/18 06:34:15;;;;;;;;;0.00;0.00;;;;;;;;5053110;28;46146;-70
2022/05/18 06:36:40;;;;;;;;;2.00;2.00;;;;;;;;5059912;28;45283;-70
2022/05/18 06:39:05;;;;;;;;;2.00;2.00;;;;;;;;5053185;28;45221;-70
2022/05/18 06:41:32;;;;;;;;;1.67;1.67;;;;;;;;5059473;28;45438;-69
2022/05/18 06:44:00;;;;;;;;;1.00;1.00;;;;;;;;5053332;28;45663;-70
2022/05/18 06:46:27;;;;;;;;;0.00;0.00;;;;;;;;5059170;28;45757;-70
2022/05/18 06:48:53;;;;;;;;;1.00;1.00;;;;;;;;5055779;28;45425;-70
2022/05/18 06:51:19;;;;;;;;;1.67;0.67;;;;;;;;5058909;28;45496;-71
2022/05/18 06:53:45;;;;;;;;;3.00;2.00;;;;;;;;5056553;28;45425;-71
2022/05/18 06:56:11;;;;;;;;;3.00;1.33;;;;;;;;5058680;28;45339;-69
2022/05/18 06:58:36;;;;;;;;;1.00;1.00;;;;;;;;5057066;28;45392;-70
2022/05/18 07:01:01;;;;;;;;;1.00;1.00;;;;;;;;5058719;28;46071;-71
2022/05/18 07:03:27;;;;;;;;;3.00;1.00;;;;;;;;5056831;28;46580;-71
2022/05/18 07:05:52;;;;;;;;;1.00;0.75;;;;;;;;5051123;28;45422;-71
2022/05/18 07:08:17;;;;;;;;;1.00;1.00;;;;;;;;5057503;28;45320;-71
2022/05/18 07:10:43;;;;;;;;;3.00;3.00;;;;;;;;5051994;28;45385;-71
2022/05/18 07:13:08;;;;;;;;;15.67;13.67;;;;;;;;5057289;28;45437;-71
2022/05/18 07:15:33;;;;;;;;;3.75;3.75;;;;;;;;5055414;28;45347;-71
2022/05/18 07:17:59;;;;;;;;;10.33;7.67;;;;;;;;5057142;28;45255;-71
2022/05/18 07:20:24;;;;;;;;;2.00;2.00;;;;;;;;5064814;28;47128;-71
2022/05/18 07:22:49;;;;;;;;;7.75;6.00;;;;;;;;5056839;28;46348;-71
2022/05/18 07:25:15;;;;;;;;;2.00;2.00;;;;;;;;5054568;28;45390;-71
2022/05/18 07:27:41;;;;;;;;;2.75;2.75;;;;;;;;5054732;28;45461;-70
2022/05/18 07:30:07;;;;;;;;;0.75;0.75;;;;;;;;5058457;28;45564;-71
2022/05/18 07:32:32;;;;;;;;;1.75;1.75;;;;;;;;5058540;28;46569;-70
2022/05/18 07:34:57;;;;;;;;;1.00;1.00;;;;;;;;5052101;28;45355;-71
2022/05/18 07:37:23;;;;;;;;;1.75;0.75;;;;;;;;5058715;28;45203;-71
2022/05/18 07:39:49;;;;;;;;;1.50;1.00;;;;;;;;5052021;28;45472;-71
2022/05/18 07:42:14;;;;;;;;;1.00;1.00;;;;;;;;5056855;28;47090;-71
2022/05/18 07:44:39;;;;;;;;;1.25;1.25;;;;;;;;5050722;28;45367;-70
2022/05/18 07:47:06;;;;;;;;;2.00;1.00;;;;;;;;5054713;28;45293;-71
2022/05/18 07:49:40;;;;;;;;;2.00;0.00;;;;;;;;5053750;28;45469;-70
2022/05/18 07:52:05;;;;;;;;;1.25;1.00;;;;;;;;5055816;28;45335;-70
2022/05/18 07:54:31;;;;;;;;;0.00;0.00;;;;;;;;5055194;28;45360;-70
2022/05/18 07:56:56;;;;;;;;;1.00;1.00;;;;;;;;5056942;28;45324;-70
2022/05/18 07:59:22;;;;;;;;;0.25;0.25;;;;;;;;5050086;28;45620;-71
2022/05/18 08:01:47;;;;;;;;;1.00;1.00;;;;;;;;5055959;28;46282;-71
2022/05/18 08:04:12;;;;;;;;;1.75;1.75;;;;;;;;5051052;28;45458;-71
2022/05/18 08:06:38;;;;;;;;;0.00;0.00;;;;;;;;5055953;28;45405;-71
2022/05/18 08:09:04;;;;;;;;;0.00;0.00;;;;;;;;5052637;28;45391;-71
2022/05/18 08:16:58;;;;;;;;;0.80;0.80;;;;;;;;5047560;28;45279;-71
2022/05/18 08:19:23;;;;;;;;;1.25;0.50;;;;;;;;5051415;28;45328;-71
2022/05/18 08:21:48;;;;;;;;;1.00;0.25;;;;;;;;5058170;28;45905;-71
2022/05/18 08:24:14;;;;;;;;;3.25;0.25;;;;;;;;5051616;28;45264;-71
2022/05/18 08:26:41;;;;;;;;;1.00;1.00;;;;;;;;5057860;28;45328;-71
2022/05/18 08:29:06;;;;;;;;;0.80;0.80;;;;;;;;5055227;28;45300;-71
2022/05/18 08:31:32;;;;;;;;;0.25;0.25;;;;;;;;5059179;28;45458;-71
2022/05/18 08:33:57;;;;;;;;;0.25;0.25;;;;;;;;5054698;28;45462;-71
2022/05/18 08:36:25;;;;;;;;;0.00;0.00;;;;;;;;5061805;28;45266;-70
2022/05/18 08:38:50;;;;;;;;;0.80;0.80;;;;;;;;5055498;28;45389;-71
2022/05/18 08:41:18;;;;;;;;;0.50;0.50;;;;;;;;5057389;28;45375;-71
2022/05/18 08:43:45;;;;;;;;;0.40;0.40;;;;;;;;5056658;28;45320;-70
2022/05/18 08:46:17;;;;;;;;;0.80;0.80;;;;;;;;5058789;28;45419;-71
2022/05/18 08:48:45;;;;;;;;;2.20;1.00;;;;;;;;5057794;28;45479;-71
2022/05/18 08:51:26;;;;;;;;;3.00;1.80;;;;;;;;5059033;28;45283;-71
2022/05/18 08:54:07;;;;;;;;;1.00;1.00;;;;;;;;5057015;28;45473;-72
2022/05/18 08:56:36;;;;;;;;;2.20;0.80;;;;;;;;5060368;28;45296;-72
2022/05/18 08:59:04;;;;;;;;;1.80;1.80;;;;;;;;5055830;28;45462;-73
2022/05/18 09:01:40;;;;;;;;;2.00;2.00;;;;;;;;5069493;28;48687;-69
2022/05/18 09:04:25;;;;;;;;;1.00;1.00;;;;;;;;5053346;28;45568;-70
2022/05/18 09:06:53;;;;;;;;;2.80;2.80;;;;;;;;5059539;28;45431;-69
2022/05/18 09:12:12;;;;;;;;;2.40;1.80;;;;;;;;5050218;28;45741;-70
2022/05/18 09:14:38;;;;;;;;;1.75;0.75;;;;;;;;5049574;28;45354;-70
2022/05/18 09:17:31;;;;;;;;;2.50;2.00;;;;;;;;5061005;28;45365;-70
2022/05/18 09:20:13;;;;;;;;;0.80;0.80;;;;;;;;5053942;28;45296;-69
2022/05/18 09:22:53;;;;;;;;;1.00;1.00;;;;;;;;5059709;28;46591;-70
2022/05/18 09:25:27;;;;;;;;;1.40;1.40;;;;;;;;5055361;28;45308;-70
2022/05/18 09:28:11;;;;;;;;;2.00;1.80;;;;;;;;5058623;28;45206;-69
2022/05/18 09:30:39;;;;;;;;;2.00;1.00;;;;;;;;5056633;28;45514;-69
2022/05/18 09:33:43;;;;;;;;;3.20;1.80;;;;;;;;5058384;28;45971;-71
2022/05/18 09:36:40;;;;;;;;;2.20;1.20;;;;;;;;5005825;28;45548;-71
2022/05/18 09:39:13;;;;;;;;;4.40;4.40;;;;;;;;4992652;28;45412;-70
2022/05/18 09:41:41;;;;;;;;;4.60;3.80;;;;;;;;5045788;28;45537;-71
2022/05/18 09:44:07;;;;;;;;;2.60;2.60;;;;;;;;5054322;28;45537;-70
2022/05/18 09:46:32;;;;;;;;;2.25;2.25;;;;;;;;5057915;28;46391;-70
2022/05/18 09:49:03;;;;;;;;;3.25;2.50;;;;;;;;5054018;28;45564;-70
2022/05/18 09:51:28;;;;;;;;;2.00;2.00;;;;;;;;5060000;28;46085;-69
2022/05/18 09:53:57;;;;;;;;;1.75;1.50;;;;;;;;5057014;28;45244;-70
2022/05/18 09:56:46;;;;;;;;;5.00;1.60;;;;;;;;5059956;28;45390;-69
2022/05/18 09:59:14;;;;;;;;;1.60;1.00;;;;;;;;5041233;28;45295;-70
2022/05/18 10:07:30;;;;;;;;;1.00;1.00;;;;;;;;5048845;28;45324;-69
2022/05/18 10:10:08;;;;;;;;;3.00;2.00;;;;;;;;5053493;28;45375;-69
2022/05/18 10:12:47;;;;;;;;;1.80;1.00;;;;;;;;5059856;28;45283;-70
2022/05/18 10:15:19;;;;;;;;;3.40;0.80;;;;;;;;5054567;28;46178;-70
2022/05/18 10:17:46;;;;;;;;;2.40;2.40;;;;;;;;5058410;28;45497;-70
2022/05/18 10:20:29;;;;;;;;;2.60;0.60;;;;;;;;5054885;28;45260;-69
2022/05/18 10:22:55;;;;;;;;;1.00;1.00;;;;;;;;5057945;28;45967;-69
2022/05/18 10:25:23;;;;;;;;;3.00;1.40;;;;;;;;5054970;28;46066;-68
2022/05/18 10:27:50;;;;;;;;;2.60;1.00;;;;;;;;5058174;28;45307;-69
2022/05/18 10:30:18;;;;;;;;;2.20;1.60;;;;;;;;5055114;28;45323;-70
2022/05/18 10:32:52;;;;;;;;;3.00;3.00;;;;;;;;5058550;28;45482;-70
2022/05/18 10:35:33;;;;;;;;;3.20;2.00;;;;;;;;5054238;28;46220;-70
2022/05/18 10:38:00;;;;;;;;;2.00;1.00;;;;;;;;5056947;28;45410;-70
2022/05/18 10:40:26;;;;;;;;;1.40;1.20;;;;;;;;5058738;28;45288;-70
2022/05/18 10:42:53;;;;;;;;;1.20;1.20;;;;;;;;5057605;28;45465;-71
2022/05/18 10:45:32;;;;;;;;;1.20;1.20;;;;;;;;5053488;28;47253;-70
2022/05/18 10:48:02;;;;;;;;;1.40;1.00;;;;;;;;5055999;28;45456;-70
2022/05/18 10:50:34;;;;;;;;;2.00;2.00;;;;;;;;5055553;28;45363;-70
2022/05/18 10:53:16;;;;;;;;;3.00;1.80;;;;;;;;5057133;28;45515;-69
2022/05/18 10:55:53;;;;;;;;;1.80;1.80;;;;;;;;5049366;28;45740;-70
2022/05/18 10:58:26;;;;;;;;;3.00;1.60;;;;;;;;5057143;28;46109;-69
2022/05/18 11:00:57;;;;;;;;;2.60;1.00;;;;;;;;5050929;28;45221;-69
2022/05/18 11:03:25;;;;;;;;;2.80;2.00;;;;;;;;5056817;28;45505;-70
2022/05/18 11:05:55;;;;;;;;;2.40;1.80;;;;;;;;5051185;28;45496;-69
2022/05/18 11:08:22;;;;;;;;;1.20;0.20;;;;;;;;5055720;28;45310;-69
2022/05/18 11:10:49;;;;;;;;;0.20;0.20;;;;;;;;5045736;28;45350;-69
2022/05/18 11:13:41;;;;;;;;;2.80;1.20;;;;;;;;5043783;28;45312;-69
2022/05/18 11:16:09;;;;;;;;;2.00;1.00;;;;;;;;5053296;28;45395;-69
2022/05/18 11:18:40;;;;;;;;;1.00;1.00;;;;;;;;5053479;28;45263;-69
2022/05/18 11:21:08;;;;;;;;;1.40;1.40;;;;;;;;5052992;28;45388;-69
2022/05/18 11:23:34;;;;;;;;;1.00;1.00;;;;;;;;5056915;28;45314;-69
2022/05/18 11:26:11;;;;;;;;;2.00;1.50;;;;;;;;5058563;28;45261;-69
2022/05/18 11:28:36;;;;;;;;;0.20;0.20;;;;;;;;5053062;28;45333;-69
2022/05/18 11:31:04;;;;;;;;;1.00;1.00;;;;;;;;5057966;28;45314;-69
2022/05/18 11:33:34;;;;;;;;;1.80;1.80;;;;;;;;5053690;28;45394;-68
2022/05/18 11:36:06;;;;;;;;;2.00;1.00;;;;;;;;5057639;28;45240;-69
2022/05/18 11:38:49;;;;;;;;;3.40;2.60;;;;;;;;5053779;28;45419;-69
2022/05/18 11:41:14;;;;;;;;;2.80;1.00;;;;;;;;5050705;28;45713;-69
2022/05/18 11:43:39;;;;;;;;;2.50;1.75;;;;;;;;5053946;28;45294;-69
2022/05/18 11:46:07;;;;;;;;;2.25;1.00;;;;;;;;5057866;28;45300;-68
2022/05/18 11:48:35;;;;;;;;;3.20;1.20;;;;;;;;5054972;28;45407;-68
2022/05/18 11:51:12;;;;;;;;;2.00;2.00;;;;;;;;5052029;28;45633;-68
2022/05/18 11:53:49;;;;;;;;;3.60;1.00;;;;;;;;5051907;28;45492;-69
2022/05/18 11:56:35;;;;;;;;;2.40;2.00;;;;;;;;5051486;28;45994;-69
2022/05/18 12:01:56;;;;;;;;;1.20;1.20;;;;;;;;5055262;28;45588;-69
2022/05/18 12:04:38;;;;;;;;;2.00;1.80;;;;;;;;5048857;28;46172;-69
2022/05/18 12:07:17;;;;;;;;;3.20;1.80;;;;;;;;5047282;28;46595;-69
2022/05/18 12:10:01;;;;;;;;;2.00;2.00;;;;;;;;5055739;28;45670;-69
2022/05/18 12:12:45;;;;;;;;;1.20;0.60;;;;;;;;5051426;28;45359;-69
2022/05/18 12:15:18;;;;;;;;;3.80;1.60;;;;;;;;5055482;28;45501;-69
2022/05/18 12:17:54;;;;;;;;;1.00;1.00;;;;;;;;5060739;28;46329;-69
2022/05/18 12:20:30;;;;;;;;;1.00;1.00;;;;;;;;5054864;28;45309;-69
2022/05/18 12:22:58;;;;;;;;;1.00;1.00;;;;;;;;5061258;28;45449;-69
2022/05/18 12:25:25;;;;;;;;;2.00;2.00;;;;;;;;5059779;28;46123;-70
2022/05/18 12:27:52;;;;;;;;;0.20;0.20;;;;;;;;5058604;28;48252;-69
2022/05/18 12:30:19;;;;;;;;;0.80;0.80;;;;;;;;5069305;28;45368;-68
2022/05/18 12:32:46;;;;;;;;;2.20;2.00;;;;;;;;5058762;28;45352;-69
2022/05/18 12:35:21;;;;;;;;;1.00;1.00;;;;;;;;5055155;28;45546;-72
2022/05/18 12:37:52;;;;;;;;;1.00;1.00;;;;;;;;5060446;28;46245;-72
2022/05/18 12:40:23;;;;;;;;;8.80;4.60;;;;;;;;5056470;28;45390;-72
2022/05/18 12:42:50;;;;;;;;;0.80;0.80;;;;;;;;5060479;28;45212;-72
2022/05/18 12:45:27;;;;;;;;;1.60;1.00;;;;;;;;5053995;28;45721;-72
2022/05/18 12:48:13;;;;;;;;;0.20;0.20;;;;;;;;5059635;28;45482;-73
2022/05/18 12:50:44;;;;;;;;;2.20;1.00;;;;;;;;5058694;28;45386;-72
2022/05/18 12:53:21;;;;;;;;;0.00;0.00;;;;;;;;5059278;28;46074;-72
2022/05/18 12:56:04;;;;;;;;;0.40;0.00;;;;;;;;5048358;28;45445;-72
2022/05/18 12:58:31;;;;;;;;;1.00;0.60;;;;;;;;5058971;28;46053;-72
2022/05/18 13:00:56;;;;;;;;;1.20;0.20;;;;;;;;5052194;28;45675;-72
2022/05/18 13:03:40;;;;;;;;;0.50;0.00;;;;;;;;5059259;28;45187;-72
2022/05/18 13:06:17;;;;;;;;;0.00;0.00;;;;;;;;5067580;28;47148;-72
2022/05/18 13:08:54;;;;;;;;;1.60;0.20;;;;;;;;5055488;28;45345;-72
2022/05/18 13:11:19;;;;;;;;;0.60;0.60;;;;;;;;5059011;28;45382;-72
2022/05/18 13:14:06;;;;;;;;;0.75;0.75;;;;;;;;5054714;28;45251;-72
2022/05/18 13:16:37;;;;;;;;;0.00;0.00;;;;;;;;5060846;28;45449;-72
2022/05/18 13:19:03;;;;;;;;;0.60;0.60;;;;;;;;5052790;28;45282;-72
2022/05/18 13:21:28;;;;;;;;;0.80;0.80;;;;;;;;5060667;28;45296;-72
2022/05/18 13:24:01;;;;;;;;;1.00;1.00;;;;;;;;5054582;28;45441;-72
2022/05/18 13:26:38;;;;;;;;;0.80;0.80;;;;;;;;5060538;28;45323;-72
2022/05/18 13:29:14;;;;;;;;;0.00;0.00;;;;;;;;5052441;28;47310;-72
2022/05/18 13:31:40;;;;;;;;;2.40;1.00;;;;;;;;5060748;28;45454;-72
2022/05/18 13:34:05;;;;;;;;;0.00;0.00;;;;;;;;5054188;28;45513;-72
2022/05/18 13:36:36;;;;;;;;;0.00;0.00;;;;;;;;5060870;28;45374;-72
2022/05/18 13:39:03;;;;;;;;;0.40;0.40;;;;;;;;5054824;28;45402;-72
2022/05/18 13:41:30;;;;;;;;;2.60;1.00;;;;;;;;5059727;28;45524;-72
2022/05/18 13:43:59;;;;;;;;;0.40;0.40;;;;;;;;5058637;27;45413;-72
2022/05/18 13:46:24;;;;;;;;;3.00;1.60;;;;;;;;5057998;28;45442;-72
2022/05/18 13:49:03;;;;;;;;;1.00;1.00;;;;;;;;5056763;28;46164;-72
2022/05/18 13:51:33;;;;;;;;;0.20;0.20;;;;;;;;5058522;28;45265;-72
2022/05/18 13:54:01;;;;;;;;;1.40;0.00;;;;;;;;5057763;28;45622;-72
2022/05/18 13:56:28;;;;;;;;;0.40;0.40;;;;;;;;5059509;28;45426;-72
2022/05/18 13:58:57;;;;;;;;;1.20;1.20;;;;;;;;5046826;28;45680;-73
2022/05/18 14:01:28;;;;;;;;;2.00;0.00;;;;;;;;5055982;28;45459;-73
2022/05/18 14:03:55;;;;;;;;;0.00;0.00;;;;;;;;5053769;28;45636;-72
2022/05/18 14:06:21;;;;;;;;;0.00;0.00;;;;;;;;5059877;28;45564;-72
2022/05/18 14:08:49;;;;;;;;;0.00;0.00;;;;;;;;5056461;28;46129;-72
2022/05/18 14:11:16;;;;;;;;;0.00;0.00;;;;;;;;5054762;28;45306;-72
2022/05/18 14:13:42;;;;;;;;;0.60;0.60;;;;;;;;5054192;28;45256;-72
2022/05/18 14:16:08;;;;;;;;;1.00;1.00;;;;;;;;5052924;28;45490;-72
2022/05/18 14:18:43;;;;;;;;;0.25;0.25;;;;;;;;5055024;28;45229;-72
2022/05/18 14:21:11;;;;;;;;;1.40;1.20;;;;;;;;5059420;28;45403;-72
2022/05/18 14:23:49;;;;;;;;;0.00;0.00;;;;;;;;5054772;28;45635;-72
2022/05/18 14:26:17;;;;;;;;;0.60;0.20;;;;;;;;5058723;28;45396;-72
2022/05/18 14:28:44;;;;;;;;;1.20;0.20;;;;;;;;5053587;28;45265;-72
2022/05/18 14:31:10;;;;;;;;;0.00;0.00;;;;;;;;5058781;28;45369;-72
2022/05/18 14:33:48;;;;;;;;;0.20;0.20;;;;;;;;5054531;28;48187;-72
2022/05/18 14:36:48;;;;;;;;;1.00;0.20;;;;;;;;5051353;28;45380;-72
2022/05/18 14:39:19;;;;;;;;;0.20;0.20;;;;;;;;4989808;28;47413;-72
2022/05/18 14:41:47;;;;;;;;;1.00;1.00;;;;;;;;5051482;28;45224;-72
2022/05/18 14:44:23;;;;;;;;;0.00;0.00;;;;;;;;5055854;28;45316;-73
2022/05/18 14:46:52;;;;;;;;;0.00;0.00;;;;;;;;5057697;28;45284;-73
2022/05/18 14:49:22;;;;;;;;;0.00;0.00;;;;;;;;5056782;28;45669;-71
2022/05/18 14:51:55;;;;;;;;;0.40;0.00;;;;;;;;5057626;28;45454;-71
2022/05/18 14:54:26;;;;;;;;;0.20;0.20;;;;;;;;5057411;28;45512;-72
2022/05/18 14:56:54;;;;;;;;;0.20;0.20;;;;;;;;5058351;28;45252;-72
2022/05/18 14:59:20;;;;;;;;;0.60;0.00;;;;;;;;5052112;28;46639;-72
2022/05/18 15:02:00;;;;;;;;;0.20;0.20;;;;;;;;5055571;28;45291;-72
2022/05/18 15:04:28;;;;;;;;;0.00;0.00;;;;;;;;5051428;28;45553;-72
2022/05/18 15:06:55;;;;;;;;;0.00;0.00;;;;;;;;5057655;28;45430;-72
2022/05/18 15:09:26;;;;;;;;;0.40;0.40;;;;;;;;5053155;28;45312;-72
2022/05/18 15:12:14;;;;;;;;;0.40;0.00;;;;;;;;5057503;28;45358;-72
2022/05/18 15:14:41;;;;;;;;;0.80;0.80;;;;;;;;5047068;28;45567;-73